sensor_id;sensor_type;location;lat;lon;timestamp;temperature;humidity
51661;DHT22;37741;49.748;8.490;2022-12-17T00:01:46;-3.90;85.50
51661;DHT22;37741;49.748;8.490;2022-12-17T00:04:30;-3.90;85.50
51661;DHT22;37741;49.748;8.490;2022-12-17T00:07:14;-3.90;85.50
51661;DHT22;37741;49.748;8.490;2022-12-17T00:09:58;-3.90;85.50
51661;DHT22;37741;49.748;8.490;2022-12-17T00:12:45;-3.90;85.50
51661;DHT22;37741;49.748;8.490;2022-12-17T00:15:32;-3.90;85.50
51661;DHT22;37741;49.748;8.490;2022-12-17T00:18:16;-3.90;85.40
51661;DHT22;37741;49.748;8.490;2022-12-17T00:21:00;-3.90;85.40
51661;DHT22;37741;49.748;8.490;2022-12-17T00:23:45;-3.90;85.40
51661;DHT22;37741;49.748;8.490;2022-12-17T00:26:30;-3.90;85.30
51661;DHT22;37741;49.748;8.490;2022-12-17T00:29:15;-4.00;85.20
51661;DHT22;37741;49.748;8.490;2022-12-17T00:31:59;-4.00;85.20
51661;DHT22;37741;49.748;8.490;2022-12-17T00:34:44;-4.00;85.20
51661;DHT22;37741;49.748;8.490;2022-12-17T00:37:28;-4.00;85.10
51661;DHT22;37741;49.748;8.490;2022-12-17T00:40:13;-4.00;85.10
51661;DHT22;37741;49.748;8.490;2022-12-17T00:43:11;-4.10;85.60
51661;DHT22;37741;49.748;8.490;2022-12-17T00:45:56;-4.10;85.00
51661;DHT22;37741;49.748;8.490;2022-12-17T00:48:41;-4.00;85.00
51661;DHT22;37741;49.748;8.490;2022-12-17T00:51:25;-4.10;84.80
51661;DHT22;37741;49.748;8.490;2022-12-17T00:54:17;-4.10;84.80
51661;DHT22;37741;49.748;8.490;2022-12-17T00:57:01;-4.10;84.70
51661;DHT22;37741;49.748;8.490;2022-12-17T00:59:45;-4.10;84.70
51661;DHT22;37741;49.748;8.490;2022-12-17T01:02:49;-4.10;84.70
51661;DHT22;37741;49.748;8.490;2022-12-17T01:05:33;-4.10;84.60
51661;DHT22;37741;49.748;8.490;2022-12-17T01:08:17;-4.10;84.60
51661;DHT22;37741;49.748;8.490;2022-12-17T01:11:06;-4.10;84.50
51661;DHT22;37741;49.748;8.490;2022-12-17T01:13:51;-4.10;84.50
51661;DHT22;37741;49.748;8.490;2022-12-17T01:16:36;-4.20;84.40
51661;DHT22;37741;49.748;8.490;2022-12-17T01:19:20;-4.10;84.40
51661;DHT22;37741;49.748;8.490;2022-12-17T01:22:04;-4.20;84.30
51661;DHT22;37741;49.748;8.490;2022-12-17T01:24:49;-4.20;84.30
51661;DHT22;37741;49.748;8.490;2022-12-17T01:27:33;-4.20;84.30
51661;DHT22;37741;49.748;8.490;2022-12-17T01:30:17;-4.20;84.30
51661;DHT22;37741;49.748;8.490;2022-12-17T01:33:05;-4.20;84.20
51661;DHT22;37741;49.748;8.490;2022-12-17T01:35:56;-4.20;84.20
51661;DHT22;37741;49.748;8.490;2022-12-17T01:38:41;-4.20;84.20
51661;DHT22;37741;49.748;8.490;2022-12-17T01:41:25;-4.20;84.10
51661;DHT22;37741;49.748;8.490;2022-12-17T01:47:23;-4.30;84.00
51661;DHT22;37741;49.748;8.490;2022-12-17T01:50:08;-4.30;83.90
51661;DHT22;37741;49.748;8.490;2022-12-17T01:52:56;-4.30;83.90
51661;DHT22;37741;49.748;8.490;2022-12-17T01:55:41;-4.30;83.80
51661;DHT22;37741;49.748;8.490;2022-12-17T01:58:26;-4.30;83.70
51661;DHT22;37741;49.748;8.490;2022-12-17T02:01:10;-4.30;83.70
51661;DHT22;37741;49.748;8.490;2022-12-17T02:03:54;-4.30;83.70
51661;DHT22;37741;49.748;8.490;2022-12-17T02:06:46;-4.30;83.60
51661;DHT22;37741;49.748;8.490;2022-12-17T02:09:43;-4.40;83.60
51661;DHT22;37741;49.748;8.490;2022-12-17T02:12:35;-4.40;83.50
51661;DHT22;37741;49.748;8.490;2022-12-17T02:15:29;-4.40;83.50
51661;DHT22;37741;49.748;8.490;2022-12-17T02:18:20;-4.40;83.50
51661;DHT22;37741;49.748;8.490;2022-12-17T02:21:06;-4.40;83.40
51661;DHT22;37741;49.748;8.490;2022-12-17T02:23:55;-4.40;83.50
51661;DHT22;37741;49.748;8.490;2022-12-17T02:26:53;-4.40;83.40
51661;DHT22;37741;49.748;8.490;2022-12-17T02:29:46;-4.40;83.40
51661;DHT22;37741;49.748;8.490;2022-12-17T02:32:39;-4.40;83.40
51661;DHT22;37741;49.748;8.490;2022-12-17T02:35:31;-4.40;83.40
51661;DHT22;37741;49.748;8.490;2022-12-17T02:38:24;-4.40;84.00
51661;DHT22;37741;49.748;8.490;2022-12-17T02:41:26;-4.40;83.30
51661;DHT22;37741;49.748;8.490;2022-12-17T02:44:11;-4.40;83.40
51661;DHT22;37741;49.748;8.490;2022-12-17T02:46:58;-4.50;83.30
51661;DHT22;37741;49.748;8.490;2022-12-17T02:49:43;-4.40;83.30
51661;DHT22;37741;49.748;8.490;2022-12-17T02:52:28;-4.40;83.30
51661;DHT22;37741;49.748;8.490;2022-12-17T02:55:13;-4.50;83.30
51661;DHT22;37741;49.748;8.490;2022-12-17T02:57:58;-4.40;83.30
51661;DHT22;37741;49.748;8.490;2022-12-17T03:00:42;-4.50;83.30
51661;DHT22;37741;49.748;8.490;2022-12-17T03:03:26;-4.40;83.30
51661;DHT22;37741;49.748;8.490;2022-12-17T03:06:10;-4.40;83.40
51661;DHT22;37741;49.748;8.490;2022-12-17T03:08:54;-4.50;83.30
51661;DHT22;37741;49.748;8.490;2022-12-17T03:11:38;-4.50;83.40
51661;DHT22;37741;49.748;8.490;2022-12-17T03:14:22;-4.50;83.40
51661;DHT22;37741;49.748;8.490;2022-12-17T03:17:06;-4.40;83.50
51661;DHT22;37741;49.748;8.490;2022-12-17T03:20:04;-4.50;83.40
51661;DHT22;37741;49.748;8.490;2022-12-17T03:22:48;-4.40;83.40
51661;DHT22;37741;49.748;8.490;2022-12-17T03:25:32;-4.50;83.30
51661;DHT22;37741;49.748;8.490;2022-12-17T03:28:17;-4.50;83.30
51661;DHT22;37741;49.748;8.490;2022-12-17T03:31:01;-4.50;83.20
51661;DHT22;37741;49.748;8.490;2022-12-17T03:33:45;-4.50;83.10
51661;DHT22;37741;49.748;8.490;2022-12-17T03:36:30;-4.50;83.10
51661;DHT22;37741;49.748;8.490;2022-12-17T03:39:13;-4.50;83.10
51661;DHT22;37741;49.748;8.490;2022-12-17T03:41:58;-4.50;83.60
51661;DHT22;37741;49.748;8.490;2022-12-17T03:44:42;-4.60;82.90
51661;DHT22;37741;49.748;8.490;2022-12-17T03:47:29;-4.60;82.80
51661;DHT22;37741;49.748;8.490;2022-12-17T03:50:13;-4.60;82.80
51661;DHT22;37741;49.748;8.490;2022-12-17T03:52:59;-4.70;82.70
51661;DHT22;37741;49.748;8.490;2022-12-17T03:55:45;-4.60;82.80
51661;DHT22;37741;49.748;8.490;2022-12-17T03:58:29;-4.60;82.70
51661;DHT22;37741;49.748;8.490;2022-12-17T04:01:13;-4.70;82.60
51661;DHT22;37741;49.748;8.490;2022-12-17T04:03:58;-4.60;82.60
51661;DHT22;37741;49.748;8.490;2022-12-17T04:06:41;-4.70;82.50
51661;DHT22;37741;49.748;8.490;2022-12-17T04:09:26;-4.70;82.50
51661;DHT22;37741;49.748;8.490;2022-12-17T04:12:10;-4.70;82.40
51661;DHT22;37741;49.748;8.490;2022-12-17T04:14:54;-4.70;82.40
51661;DHT22;37741;49.748;8.490;2022-12-17T04:17:38;-4.70;82.40
51661;DHT22;37741;49.748;8.490;2022-12-17T04:20:22;-4.70;82.30
51661;DHT22;37741;49.748;8.490;2022-12-17T04:23:06;-4.70;82.30
51661;DHT22;37741;49.748;8.490;2022-12-17T04:25:50;-4.80;82.20
51661;DHT22;37741;49.748;8.490;2022-12-17T04:28:54;-4.80;82.70
51661;DHT22;37741;49.748;8.490;2022-12-17T04:31:38;-4.80;82.10
51661;DHT22;37741;49.748;8.490;2022-12-17T04:34:22;-4.80;82.10
51661;DHT22;37741;49.748;8.490;2022-12-17T04:37:07;-4.80;82.10
51661;DHT22;37741;49.748;8.490;2022-12-17T04:39:51;-4.80;82.10
51661;DHT22;37741;49.748;8.490;2022-12-17T04:42:35;-4.80;82.00
51661;DHT22;37741;49.748;8.490;2022-12-17T04:45:19;-4.80;81.90
51661;DHT22;37741;49.748;8.490;2022-12-17T04:48:05;-4.80;81.90
51661;DHT22;37741;49.748;8.490;2022-12-17T04:50:50;-4.80;81.80
51661;DHT22;37741;49.748;8.490;2022-12-17T04:53:34;-4.80;81.80
51661;DHT22;37741;49.748;8.490;2022-12-17T04:56:18;-4.90;81.60
51661;DHT22;37741;49.748;8.490;2022-12-17T04:59:03;-4.90;81.50
51661;DHT22;37741;49.748;8.490;2022-12-17T05:01:47;-4.90;81.50
51661;DHT22;37741;49.748;8.490;2022-12-17T05:04:35;-4.90;81.50
51661;DHT22;37741;49.748;8.490;2022-12-17T05:07:19;-4.90;81.40
51661;DHT22;37741;49.748;8.490;2022-12-17T05:10:03;-4.90;81.40
51661;DHT22;37741;49.748;8.490;2022-12-17T05:12:55;-4.90;81.30
51661;DHT22;37741;49.748;8.490;2022-12-17T05:15:39;-4.90;81.30
51661;DHT22;37741;49.748;8.490;2022-12-17T05:18:23;-4.90;81.20
51661;DHT22;37741;49.748;8.490;2022-12-17T05:21:08;-5.00;81.20
51661;DHT22;37741;49.748;8.490;2022-12-17T05:23:52;-4.90;81.20
51661;DHT22;37741;49.748;8.490;2022-12-17T05:26:36;-5.00;81.10
51661;DHT22;37741;49.748;8.490;2022-12-17T05:29:20;-5.00;81.10
51661;DHT22;37741;49.748;8.490;2022-12-17T05:32:04;-5.00;81.10
51661;DHT22;37741;49.748;8.490;2022-12-17T05:34:48;-5.00;81.10
51661;DHT22;37741;49.748;8.490;2022-12-17T05:37:32;-5.00;81.10
51661;DHT22;37741;49.748;8.490;2022-12-17T05:40:16;-5.00;81.00
51661;DHT22;37741;49.748;8.490;2022-12-17T05:43:04;-5.00;81.00
51661;DHT22;37741;49.748;8.490;2022-12-17T05:45:48;-5.00;81.00
51661;DHT22;37741;49.748;8.490;2022-12-17T05:48:33;-5.10;80.90
51661;DHT22;37741;49.748;8.490;2022-12-17T05:51:18;-5.10;80.70
51661;DHT22;37741;49.748;8.490;2022-12-17T05:54:03;-5.10;80.70
51661;DHT22;37741;49.748;8.490;2022-12-17T05:56:47;-5.10;80.70
51661;DHT22;37741;49.748;8.490;2022-12-17T05:59:31;-5.10;80.70
51661;DHT22;37741;49.748;8.490;2022-12-17T06:02:15;-5.10;80.70
51661;DHT22;37741;49.748;8.490;2022-12-17T06:04:59;-5.10;80.70
51661;DHT22;37741;49.748;8.490;2022-12-17T06:07:43;-5.10;80.60
51661;DHT22;37741;49.748;8.490;2022-12-17T06:10:27;-5.10;80.70
51661;DHT22;37741;49.748;8.490;2022-12-17T06:13:11;-5.10;80.60
51661;DHT22;37741;49.748;8.490;2022-12-17T06:15:56;-5.20;80.50
51661;DHT22;37741;49.748;8.490;2022-12-17T06:18:40;-5.20;80.40
51661;DHT22;37741;49.748;8.490;2022-12-17T06:21:24;-5.20;80.40
51661;DHT22;37741;49.748;8.490;2022-12-17T06:24:08;-5.20;80.30
51661;DHT22;37741;49.748;8.490;2022-12-17T06:26:52;-5.20;80.30
51661;DHT22;37741;49.748;8.490;2022-12-17T06:29:37;-5.20;80.20
51661;DHT22;37741;49.748;8.490;2022-12-17T06:32:21;-5.20;80.20
51661;DHT22;37741;49.748;8.490;2022-12-17T06:35:05;-5.30;80.20
51661;DHT22;37741;49.748;8.490;2022-12-17T06:38:05;-5.30;80.10
51661;DHT22;37741;49.748;8.490;2022-12-17T06:40:52;-5.30;80.10
51661;DHT22;37741;49.748;8.490;2022-12-17T06:43:37;-5.30;80.10
51661;DHT22;37741;49.748;8.490;2022-12-17T06:46:21;-5.30;80.00
51661;DHT22;37741;49.748;8.490;2022-12-17T06:49:05;-5.30;80.00
51661;DHT22;37741;49.748;8.490;2022-12-17T06:51:49;-5.30;80.00
51661;DHT22;37741;49.748;8.490;2022-12-17T06:54:34;-5.30;79.90
51661;DHT22;37741;49.748;8.490;2022-12-17T06:57:18;-5.30;79.80
51661;DHT22;37741;49.748;8.490;2022-12-17T07:00:03;-5.40;79.70
51661;DHT22;37741;49.748;8.490;2022-12-17T07:02:47;-5.40;79.80
51661;DHT22;37741;49.748;8.490;2022-12-17T07:05:32;-5.40;79.70
51661;DHT22;37741;49.748;8.490;2022-12-17T07:08:16;-5.40;79.70
51661;DHT22;37741;49.748;8.490;2022-12-17T07:11:00;-5.40;79.70
51661;DHT22;37741;49.748;8.490;2022-12-17T07:13:44;-5.40;79.60
51661;DHT22;37741;49.748;8.490;2022-12-17T07:16:28;-5.40;79.60
51661;DHT22;37741;49.748;8.490;2022-12-17T07:19:15;-5.40;79.70
51661;DHT22;37741;49.748;8.490;2022-12-17T07:22:00;-5.40;79.60
51661;DHT22;37741;49.748;8.490;2022-12-17T07:24:44;-5.40;79.60
51661;DHT22;37741;49.748;8.490;2022-12-17T07:27:28;-5.50;79.60
51661;DHT22;37741;49.748;8.490;2022-12-17T07:30:12;-5.40;79.60
51661;DHT22;37741;49.748;8.490;2022-12-17T07:33:01;-5.50;79.50
51661;DHT22;37741;49.748;8.490;2022-12-17T07:35:46;-5.50;79.50
51661;DHT22;37741;49.748;8.490;2022-12-17T07:38:30;-5.50;79.50
51661;DHT22;37741;49.748;8.490;2022-12-17T07:41:14;-5.50;79.40
51661;DHT22;37741;49.748;8.490;2022-12-17T07:43:58;-5.50;79.40
51661;DHT22;37741;49.748;8.490;2022-12-17T07:46:42;-5.50;79.40
51661;DHT22;37741;49.748;8.490;2022-12-17T07:49:26;-5.50;79.30
51661;DHT22;37741;49.748;8.490;2022-12-17T07:52:11;-5.50;79.40
51661;DHT22;37741;49.748;8.490;2022-12-17T07:54:55;-5.50;79.40
51661;DHT22;37741;49.748;8.490;2022-12-17T07:57:39;-5.50;79.40
51661;DHT22;37741;49.748;8.490;2022-12-17T08:00:23;-5.50;79.40
51661;DHT22;37741;49.748;8.490;2022-12-17T08:03:07;-5.60;79.30
51661;DHT22;37741;49.748;8.490;2022-12-17T08:05:51;-5.50;79.30
51661;DHT22;37741;49.748;8.490;2022-12-17T08:08:35;-5.50;79.40
51661;DHT22;37741;49.748;8.490;2022-12-17T08:11:20;-5.50;79.30
51661;DHT22;37741;49.748;8.490;2022-12-17T08:14:04;-5.50;80.00
51661;DHT22;37741;49.748;8.490;2022-12-17T08:16:48;-5.50;79.50
51661;DHT22;37741;49.748;8.490;2022-12-17T08:19:32;-5.50;79.40
51661;DHT22;37741;49.748;8.490;2022-12-17T08:22:16;-5.50;79.50
51661;DHT22;37741;49.748;8.490;2022-12-17T08:25:00;-5.50;79.50
51661;DHT22;37741;49.748;8.490;2022-12-17T08:27:44;-5.50;79.50
51661;DHT22;37741;49.748;8.490;2022-12-17T08:30:28;-5.50;79.30
51661;DHT22;37741;49.748;8.490;2022-12-17T08:33:12;-5.40;79.40
51661;DHT22;37741;49.748;8.490;2022-12-17T08:35:57;-5.50;79.30
51661;DHT22;37741;49.748;8.490;2022-12-17T08:38:41;-5.50;79.30
51661;DHT22;37741;49.748;8.490;2022-12-17T08:41:26;-5.50;79.40
51661;DHT22;37741;49.748;8.490;2022-12-17T08:44:10;-5.50;79.50
51661;DHT22;37741;49.748;8.490;2022-12-17T08:46:54;-5.40;79.50
51661;DHT22;37741;49.748;8.490;2022-12-17T08:49:38;-5.40;79.60
51661;DHT22;37741;49.748;8.490;2022-12-17T08:52:22;-5.40;79.60
51661;DHT22;37741;49.748;8.490;2022-12-17T08:55:07;-5.40;79.60
51661;DHT22;37741;49.748;8.490;2022-12-17T08:57:54;-5.40;79.70
51661;DHT22;37741;49.748;8.490;2022-12-17T09:00:39;-5.40;79.70
51661;DHT22;37741;49.748;8.490;2022-12-17T09:03:23;-5.40;79.70
51661;DHT22;37741;49.748;8.490;2022-12-17T09:06:08;-5.40;79.70
51661;DHT22;37741;49.748;8.490;2022-12-17T09:08:52;-5.40;79.70
51661;DHT22;37741;49.748;8.490;2022-12-17T09:11:36;-5.40;79.80
51661;DHT22;37741;49.748;8.490;2022-12-17T09:14:20;-5.40;79.80
51661;DHT22;37741;49.748;8.490;2022-12-17T09:17:04;-5.40;80.00
51661;DHT22;37741;49.748;8.490;2022-12-17T09:19:48;-5.40;80.00
51661;DHT22;37741;49.748;8.490;2022-12-17T09:22:33;-5.40;80.00
51661;DHT22;37741;49.748;8.490;2022-12-17T09:25:16;-5.40;80.10
51661;DHT22;37741;49.748;8.490;2022-12-17T09:28:03;-5.40;80.10
51661;DHT22;37741;49.748;8.490;2022-12-17T09:30:47;-5.40;80.10
51661;DHT22;37741;49.748;8.490;2022-12-17T09:33:32;-5.40;80.10
51661;DHT22;37741;49.748;8.490;2022-12-17T09:36:17;-5.40;80.70
51661;DHT22;37741;49.748;8.490;2022-12-17T09:39:01;-5.30;80.80
51661;DHT22;37741;49.748;8.490;2022-12-17T09:50:56;-5.30;80.40
51661;DHT22;37741;49.748;8.490;2022-12-17T09:53:51;-5.30;80.40
51661;DHT22;37741;49.748;8.490;2022-12-17T09:56:37;-5.30;80.40
51661;DHT22;37741;49.748;8.490;2022-12-17T09:59:26;-5.30;80.50
51661;DHT22;37741;49.748;8.490;2022-12-17T10:04:56;-5.30;80.40
51661;DHT22;37741;49.748;8.490;2022-12-17T10:07:41;-5.30;80.50
51661;DHT22;37741;49.748;8.490;2022-12-17T10:10:30;-5.20;80.60
51661;DHT22;37741;49.748;8.490;2022-12-17T10:13:21;-5.20;80.60
51661;DHT22;37741;49.748;8.490;2022-12-17T10:16:28;-5.20;80.60
51661;DHT22;37741;49.748;8.490;2022-12-17T10:19:20;-5.20;80.60
51661;DHT22;37741;49.748;8.490;2022-12-17T10:22:11;-5.20;80.60
51661;DHT22;37741;49.748;8.490;2022-12-17T10:24:55;-5.20;80.60
51661;DHT22;37741;49.748;8.490;2022-12-17T10:27:39;-5.20;81.30
51661;DHT22;37741;49.748;8.490;2022-12-17T10:30:27;-5.20;80.70
51661;DHT22;37741;49.748;8.490;2022-12-17T10:33:17;-5.20;80.70
51661;DHT22;37741;49.748;8.490;2022-12-17T10:36:03;-5.20;80.70
51661;DHT22;37741;49.748;8.490;2022-12-17T10:38:53;-5.20;80.70
51661;DHT22;37741;49.748;8.490;2022-12-17T10:41:42;-5.20;80.80
51661;DHT22;37741;49.748;8.490;2022-12-17T10:44:33;-5.20;80.90
51661;DHT22;37741;49.748;8.490;2022-12-17T10:47:25;-5.20;80.90
51661;DHT22;37741;49.748;8.490;2022-12-17T10:50:12;-5.20;81.00
51661;DHT22;37741;49.748;8.490;2022-12-17T10:52:58;-5.10;81.20
51661;DHT22;37741;49.748;8.490;2022-12-17T10:55:54;-5.10;81.20
51661;DHT22;37741;49.748;8.490;2022-12-17T10:58:44;-5.10;81.30
51661;DHT22;37741;49.748;8.490;2022-12-17T11:01:29;-5.10;81.30
51661;DHT22;37741;49.748;8.490;2022-12-17T11:04:35;-5.10;81.30
51661;DHT22;37741;49.748;8.490;2022-12-17T11:07:28;-5.10;81.40
51661;DHT22;37741;49.748;8.490;2022-12-17T11:10:21;-5.10;81.50
51661;DHT22;37741;49.748;8.490;2022-12-17T11:13:16;-5.10;81.50
51661;DHT22;37741;49.748;8.490;2022-12-17T11:16:02;-5.10;81.60
51661;DHT22;37741;49.748;8.490;2022-12-17T11:18:57;-5.00;81.80
51661;DHT22;37741;49.748;8.490;2022-12-17T11:21:50;-5.00;81.70
51661;DHT22;37741;49.748;8.490;2022-12-17T11:25:12;-5.00;81.90
51661;DHT22;37741;49.748;8.490;2022-12-17T11:28:26;-5.00;81.80
51661;DHT22;37741;49.748;8.490;2022-12-17T11:31:21;-5.00;81.60
51661;DHT22;37741;49.748;8.490;2022-12-17T11:37:44;-4.90;81.60
51661;DHT22;37741;49.748;8.490;2022-12-17T11:46:57;-4.90;81.60
51661;DHT22;37741;49.748;8.490;2022-12-17T11:53:03;-4.90;81.60
51661;DHT22;37741;49.748;8.490;2022-12-17T12:01:50;-4.80;81.60
51661;DHT22;37741;49.748;8.490;2022-12-17T12:14:07;-4.70;82.00
51661;DHT22;37741;49.748;8.490;2022-12-17T12:17:20;-4.70;82.20
51661;DHT22;37741;49.748;8.490;2022-12-17T12:23:21;-4.70;81.90
51661;DHT22;37741;49.748;8.490;2022-12-17T12:26:22;-4.70;81.80
51661;DHT22;37741;49.748;8.490;2022-12-17T12:29:17;-4.70;81.80
51661;DHT22;37741;49.748;8.490;2022-12-17T12:32:16;-4.70;81.80
51661;DHT22;37741;49.748;8.490;2022-12-17T12:35:03;-4.70;82.00
51661;DHT22;37741;49.748;8.490;2022-12-17T12:37:48;-4.70;81.80
51661;DHT22;37741;49.748;8.490;2022-12-17T12:40:45;-4.60;81.90
51661;DHT22;37741;49.748;8.490;2022-12-17T12:43:32;-4.60;81.90
51661;DHT22;37741;49.748;8.490;2022-12-17T12:46:40;-4.60;81.90
51661;DHT22;37741;49.748;8.490;2022-12-17T12:52:27;-4.60;81.90
51661;DHT22;37741;49.748;8.490;2022-12-17T12:55:12;-4.60;81.80
51661;DHT22;37741;49.748;8.490;2022-12-17T12:58:04;-4.60;81.80
51661;DHT22;37741;49.748;8.490;2022-12-17T13:11:54;-4.50;81.70
51661;DHT22;37741;49.748;8.490;2022-12-17T13:14:25;-4.50;81.70
51661;DHT22;37741;49.748;8.490;2022-12-17T13:16:56;-4.50;81.70
51661;DHT22;37741;49.748;8.490;2022-12-17T13:19:39;-4.50;81.70
51661;DHT22;37741;49.748;8.490;2022-12-17T13:24:44;-4.50;81.70
51661;DHT22;37741;49.748;8.490;2022-12-17T13:27:37;-4.50;81.70
51661;DHT22;37741;49.748;8.490;2022-12-17T13:30:22;-4.50;81.60
51661;DHT22;37741;49.748;8.490;2022-12-17T13:36:17;-4.50;81.60
51661;DHT22;37741;49.748;8.490;2022-12-17T13:41:42;-4.50;81.60
51661;DHT22;37741;49.748;8.490;2022-12-17T13:44:19;-4.50;81.60
51661;DHT22;37741;49.748;8.490;2022-12-17T13:46:47;-4.50;81.70
51661;DHT22;37741;49.748;8.490;2022-12-17T13:49:17;-4.40;81.80
51661;DHT22;37741;49.748;8.490;2022-12-17T13:51:43;-4.40;81.80
51661;DHT22;37741;49.748;8.490;2022-12-17T13:54:17;-4.40;81.70
51661;DHT22;37741;49.748;8.490;2022-12-17T13:56:44;-4.40;81.80
51661;DHT22;37741;49.748;8.490;2022-12-17T13:59:17;-4.40;81.80
51661;DHT22;37741;49.748;8.490;2022-12-17T14:01:46;-4.40;81.90
51661;DHT22;37741;49.748;8.490;2022-12-17T14:04:23;-4.40;81.90
51661;DHT22;37741;49.748;8.490;2022-12-17T14:06:50;-4.40;81.90
51661;DHT22;37741;49.748;8.490;2022-12-17T14:09:18;-4.40;81.80
51661;DHT22;37741;49.748;8.490;2022-12-17T14:11:44;-4.40;81.90
51661;DHT22;37741;49.748;8.490;2022-12-17T14:14:30;-4.40;81.80
51661;DHT22;37741;49.748;8.490;2022-12-17T14:16:56;-4.40;81.80
51661;DHT22;37741;49.748;8.490;2022-12-17T14:19:22;-4.40;81.80
51661;DHT22;37741;49.748;8.490;2022-12-17T14:21:49;-4.30;81.90
51661;DHT22;37741;49.748;8.490;2022-12-17T14:24:16;-4.40;81.80
51661;DHT22;37741;49.748;8.490;2022-12-17T14:26:53;-4.30;82.00
51661;DHT22;37741;49.748;8.490;2022-12-17T14:29:44;-4.40;82.80
51661;DHT22;37741;49.748;8.490;2022-12-17T14:32:29;-4.40;83.40
51661;DHT22;37741;49.748;8.490;2022-12-17T14:34:54;-4.40;83.30
51661;DHT22;37741;49.748;8.490;2022-12-17T14:37:22;-4.40;83.10
51661;DHT22;37741;49.748;8.490;2022-12-17T14:39:49;-4.40;83.00
51661;DHT22;37741;49.748;8.490;2022-12-17T14:42:17;-4.40;82.90
51661;DHT22;37741;49.748;8.490;2022-12-17T14:44:54;-4.40;82.90
51661;DHT22;37741;49.748;8.490;2022-12-17T14:47:32;-4.40;82.80
51661;DHT22;37741;49.748;8.490;2022-12-17T14:50:05;-4.40;82.80
51661;DHT22;37741;49.748;8.490;2022-12-17T14:54:58;-4.30;82.70
51661;DHT22;37741;49.748;8.490;2022-12-17T14:57:24;-4.30;82.70
51661;DHT22;37741;49.748;8.490;2022-12-17T14:59:49;-4.30;82.60
51661;DHT22;37741;49.748;8.490;2022-12-17T15:04:42;-4.30;82.60
51661;DHT22;37741;49.748;8.490;2022-12-17T15:07:13;-4.30;82.50
51661;DHT22;37741;49.748;8.490;2022-12-17T15:09:41;-4.30;82.50
51661;DHT22;37741;49.748;8.490;2022-12-17T15:12:08;-4.30;82.50
51661;DHT22;37741;49.748;8.490;2022-12-17T15:14:34;-4.30;82.50
51661;DHT22;37741;49.748;8.490;2022-12-17T15:17:00;-4.30;82.50
51661;DHT22;37741;49.748;8.490;2022-12-17T15:19:25;-4.30;82.50
51661;DHT22;37741;49.748;8.490;2022-12-17T15:21:51;-4.30;82.40
51661;DHT22;37741;49.748;8.490;2022-12-17T15:24:20;-4.30;82.40
51661;DHT22;37741;49.748;8.490;2022-12-17T15:26:46;-4.30;82.40
51661;DHT22;37741;49.748;8.490;2022-12-17T15:29:12;-4.30;82.40
51661;DHT22;37741;49.748;8.490;2022-12-17T15:31:38;-4.30;82.40
51661;DHT22;37741;49.748;8.490;2022-12-17T15:34:04;-4.30;82.40
51661;DHT22;37741;49.748;8.490;2022-12-17T15:36:30;-4.30;82.40
51661;DHT22;37741;49.748;8.490;2022-12-17T15:38:56;-4.30;82.40
51661;DHT22;37741;49.748;8.490;2022-12-17T15:41:22;-4.30;82.40
51661;DHT22;37741;49.748;8.490;2022-12-17T15:44:06;-4.30;82.50
51661;DHT22;37741;49.748;8.490;2022-12-17T15:46:32;-4.30;82.50
51661;DHT22;37741;49.748;8.490;2022-12-17T15:48:59;-4.30;82.50
51661;DHT22;37741;49.748;8.490;2022-12-17T15:51:24;-4.30;82.50
51661;DHT22;37741;49.748;8.490;2022-12-17T15:53:50;-4.30;82.50
51661;DHT22;37741;49.748;8.490;2022-12-17T15:56:26;-4.30;82.50
51661;DHT22;37741;49.748;8.490;2022-12-17T15:58:55;-4.30;82.50
51661;DHT22;37741;49.748;8.490;2022-12-17T16:01:21;-4.30;82.60
51661;DHT22;37741;49.748;8.490;2022-12-17T16:03:50;-4.30;82.50
51661;DHT22;37741;49.748;8.490;2022-12-17T16:06:16;-4.30;82.60
51661;DHT22;37741;49.748;8.490;2022-12-17T16:08:41;-4.30;82.60
51661;DHT22;37741;49.748;8.490;2022-12-17T16:11:08;-4.30;82.60
51661;DHT22;37741;49.748;8.490;2022-12-17T16:13:35;-4.30;82.60
51661;DHT22;37741;49.748;8.490;2022-12-17T16:16:01;-4.30;82.60
51661;DHT22;37741;49.748;8.490;2022-12-17T16:18:27;-4.30;82.60
51661;DHT22;37741;49.748;8.490;2022-12-17T16:20:53;-4.30;82.60
51661;DHT22;37741;49.748;8.490;2022-12-17T16:23:19;-4.30;82.60
51661;DHT22;37741;49.748;8.490;2022-12-17T16:25:57;-4.30;82.60
51661;DHT22;37741;49.748;8.490;2022-12-17T16:28:24;-4.30;82.60
51661;DHT22;37741;49.748;8.490;2022-12-17T16:31:04;-4.30;82.60
51661;DHT22;37741;49.748;8.490;2022-12-17T16:33:32;-4.30;82.60
51661;DHT22;37741;49.748;8.490;2022-12-17T16:35:57;-4.30;82.70
51661;DHT22;37741;49.748;8.490;2022-12-17T16:38:23;-4.30;82.70
51661;DHT22;37741;49.748;8.490;2022-12-17T16:40:49;-4.30;82.70
51661;DHT22;37741;49.748;8.490;2022-12-17T16:43:18;-4.30;82.80
51661;DHT22;37741;49.748;8.490;2022-12-17T16:45:49;-4.30;82.80
51661;DHT22;37741;49.748;8.490;2022-12-17T16:48:15;-4.30;82.80
51661;DHT22;37741;49.748;8.490;2022-12-17T16:50:42;-4.30;82.90
51661;DHT22;37741;49.748;8.490;2022-12-17T16:53:08;-4.30;82.90
51661;DHT22;37741;49.748;8.490;2022-12-17T16:55:45;-4.30;82.90
51661;DHT22;37741;49.748;8.490;2022-12-17T16:58:12;-4.30;82.90
51661;DHT22;37741;49.748;8.490;2022-12-17T17:00:38;-4.30;82.90
51661;DHT22;37741;49.748;8.490;2022-12-17T17:03:05;-4.30;82.90
51661;DHT22;37741;49.748;8.490;2022-12-17T17:05:33;-4.30;83.00
51661;DHT22;37741;49.748;8.490;2022-12-17T17:07:59;-4.30;83.00
51661;DHT22;37741;49.748;8.490;2022-12-17T17:10:28;-4.30;83.00
51661;DHT22;37741;49.748;8.490;2022-12-17T17:12:54;-4.30;83.00
51661;DHT22;37741;49.748;8.490;2022-12-17T17:15:20;-4.30;83.00
51661;DHT22;37741;49.748;8.490;2022-12-17T17:17:47;-4.30;83.00
51661;DHT22;37741;49.748;8.490;2022-12-17T17:20:12;-4.30;83.00
51661;DHT22;37741;49.748;8.490;2022-12-17T17:22:38;-4.30;83.00
51661;DHT22;37741;49.748;8.490;2022-12-17T17:25:04;-4.30;83.00
51661;DHT22;37741;49.748;8.490;2022-12-17T17:27:30;-4.30;83.00
51661;DHT22;37741;49.748;8.490;2022-12-17T17:29:56;-4.30;83.00
51661;DHT22;37741;49.748;8.490;2022-12-17T17:32:25;-4.30;83.00
51661;DHT22;37741;49.748;8.490;2022-12-17T17:34:51;-4.30;83.00
51661;DHT22;37741;49.748;8.490;2022-12-17T17:37:17;-4.30;83.10
51661;DHT22;37741;49.748;8.490;2022-12-17T17:39:43;-4.30;83.10
51661;DHT22;37741;49.748;8.490;2022-12-17T17:42:08;-4.30;83.10
51661;DHT22;37741;49.748;8.490;2022-12-17T17:44:34;-4.30;83.20
51661;DHT22;37741;49.748;8.490;2022-12-17T17:47:00;-4.30;83.20
51661;DHT22;37741;49.748;8.490;2022-12-17T17:49:25;-4.30;83.20
51661;DHT22;37741;49.748;8.490;2022-12-17T17:51:51;-4.30;83.20
51661;DHT22;37741;49.748;8.490;2022-12-17T17:54:17;-4.30;83.40
51661;DHT22;37741;49.748;8.490;2022-12-17T17:56:43;-4.30;83.40
51661;DHT22;37741;49.748;8.490;2022-12-17T17:59:14;-4.30;83.40
51661;DHT22;37741;49.748;8.490;2022-12-17T18:01:47;-4.30;83.60
51661;DHT22;37741;49.748;8.490;2022-12-17T18:04:16;-4.30;83.60
51661;DHT22;37741;49.748;8.490;2022-12-17T18:06:42;-4.30;83.60
51661;DHT22;37741;49.748;8.490;2022-12-17T18:09:09;-4.30;83.70
51661;DHT22;37741;49.748;8.490;2022-12-17T18:11:36;-4.30;83.90
51661;DHT22;37741;49.748;8.490;2022-12-17T18:14:04;-4.30;83.80